createdAt,value
2022-11-18T00:01:04.207Z,93887.80
2022-11-18T00:03:30.576Z,93886.20
2022-11-18T00:05:56.994Z,93886.35
2022-11-18T00:08:23.346Z,93887.17
2022-11-18T00:10:49.751Z,93880.37
2022-11-18T00:13:16.168Z,93888.64
2022-11-18T00:15:42.561Z,93888.94
2022-11-18T00:18:09.826Z,93875.84
2022-11-18T00:20:36.215Z,93893.30
2022-11-18T00:23:02.559Z,93893.30
2022-11-18T00:25:28.963Z,93891.05
2022-11-18T00:27:55.324Z,93884.91
2022-11-18T00:30:21.797Z,93886.68
2022-11-18T00:32:48.139Z,93886.53
2022-11-18T00:35:14.541Z,93887.81
2022-11-18T00:37:40.893Z,93887.64
2022-11-18T00:40:07.281Z,93887.64
2022-11-18T00:42:33.655Z,93881.36
2022-11-18T00:45:00.041Z,93876.52
2022-11-18T00:47:26.403Z,93879.58
2022-11-18T00:49:52.832Z,93877.14
2022-11-18T00:52:19.227Z,93871.81
2022-11-18T00:54:45.587Z,93874.25
2022-11-18T00:57:11.987Z,93873.11
2022-11-18T00:59:38.362Z,93873.11
2022-11-18T01:02:04.752Z,93872.47
2022-11-18T01:04:31.099Z,93874.88
2022-11-18T01:06:57.606Z,93872.47
2022-11-18T01:09:23.903Z,93870.52
2022-11-18T01:11:50.297Z,93866.64
2022-11-18T01:14:16.648Z,93868.89
2022-11-18T01:16:43.043Z,93877.13
2022-11-18T01:19:09.397Z,93874.39
2022-11-18T01:21:35.832Z,93872.28
2022-11-18T01:24:02.168Z,93875.54
2022-11-18T01:26:28.588Z,93875.20
2022-11-18T01:28:54.939Z,93872.28
2022-11-18T01:31:21.335Z,93874.08
2022-11-18T01:33:47.687Z,93883.47
2022-11-18T01:36:14.090Z,93880.37
2022-11-18T01:38:40.494Z,93873.60
2022-11-18T01:41:06.910Z,93887.83
2022-11-18T01:43:33.277Z,93885.54
2022-11-18T01:45:59.694Z,93875.38
2022-11-18T01:48:26.037Z,93882.31
2022-11-18T01:50:53.882Z,93871.32
2022-11-18T01:53:18.838Z,93870.84
2022-11-18T01:55:45.239Z,93877.80
2022-11-18T01:58:11.587Z,93866.17
2022-11-18T02:00:37.997Z,93874.23
2022-11-18T02:03:04.345Z,93889.11
2022-11-18T02:05:31.997Z,93880.05
2022-11-18T02:07:57.090Z,93879.25
2022-11-18T02:10:23.493Z,93880.20
2022-11-18T02:12:49.837Z,93883.45
2022-11-18T02:15:16.232Z,93883.45
2022-11-18T02:17:42.593Z,93881.67
2022-11-18T02:20:08.987Z,93883.30
2022-11-18T02:22:35.385Z,93882.48
2022-11-18T02:25:01.810Z,93879.09
2022-11-18T02:27:28.166Z,93888.14
2022-11-18T02:29:54.599Z,93882.48
2022-11-18T02:32:20.955Z,93883.78
2022-11-18T02:34:47.368Z,93880.53
2022-11-18T02:37:13.718Z,93886.83
2022-11-18T02:39:40.126Z,93875.36
2022-11-18T02:42:06.482Z,93885.88
2022-11-18T02:44:32.962Z,93877.78
2022-11-18T02:46:59.311Z,93873.91
2022-11-18T02:49:25.711Z,93880.85
2022-11-18T02:51:53.189Z,93868.91
2022-11-18T02:54:18.476Z,93875.67
2022-11-18T02:56:44.827Z,93876.97
2022-11-18T02:59:11.217Z,93867.63
2022-11-18T03:01:37.616Z,93877.97
2022-11-18T03:04:03.971Z,93888.61
2022-11-18T03:06:30.323Z,93867.11
2022-11-18T03:08:56.725Z,93881.66
2022-11-18T03:11:23.082Z,93882.16
2022-11-18T03:13:49.492Z,93881.83
2022-11-18T03:16:15.844Z,93889.92
2022-11-18T03:18:42.243Z,93880.05
2022-11-18T03:21:08.594Z,93894.75
2022-11-18T03:23:34.990Z,93872.78
2022-11-18T03:26:01.338Z,93877.28
2022-11-18T03:28:27.769Z,93881.98
2022-11-18T03:30:54.125Z,93877.09
2022-11-18T03:33:20.523Z,93873.08
2022-11-18T03:35:46.883Z,93877.57
2022-11-18T03:38:13.282Z,93878.72
2022-11-18T03:40:39.632Z,93874.03
2022-11-18T03:43:06.026Z,93876.12
2022-11-18T03:45:32.376Z,93875.16
2022-11-18T03:47:58.782Z,93871.91
2022-11-18T03:50:25.163Z,93881.95
2022-11-18T03:52:51.554Z,93867.08
2022-11-18T03:55:17.946Z,93875.66
2022-11-18T03:57:44.352Z,93855.45
2022-11-18T04:00:10.706Z,93867.73
2022-11-18T04:02:37.104Z,93866.44
2022-11-18T04:05:03.504Z,93855.11
2022-11-18T04:07:30.043Z,93859.80
2022-11-18T04:09:56.299Z,93864.97
2022-11-18T04:12:22.700Z,93872.73
2022-11-18T04:14:49.062Z,93858.02
2022-11-18T04:17:15.464Z,93857.06
2022-11-18T04:19:41.819Z,93882.91
2022-11-18T04:22:08.210Z,93863.84
2022-11-18T04:24:34.571Z,93868.21
2022-11-18T04:27:00.975Z,93872.09
2022-11-18T04:29:27.337Z,93854.95
2022-11-18T04:31:53.733Z,93869.65
2022-11-18T04:34:20.101Z,93886.14
2022-11-18T04:36:46.493Z,93858.84
2022-11-18T04:39:12.846Z,93865.95
2022-11-18T04:41:39.254Z,93900.67
2022-11-18T04:44:05.604Z,93868.38
2022-11-18T04:46:32.004Z,93872.55
2022-11-18T04:48:58.354Z,93876.12
2022-11-18T04:51:24.787Z,93899.05
2022-11-18T04:53:51.148Z,93887.58
2022-11-18T04:56:17.579Z,93865.77
2022-11-18T04:58:43.939Z,93889.03
2022-11-18T05:01:10.382Z,93881.61
2022-11-18T05:03:36.697Z,93895.69
2022-11-18T05:06:03.086Z,93888.89
2022-11-18T05:08:29.533Z,93870.14
2022-11-18T05:10:55.842Z,93890.66
2022-11-18T05:13:22.213Z,93883.56
2022-11-18T05:15:48.612Z,93872.57
2022-11-18T05:18:14.969Z,93893.09
2022-11-18T05:20:41.830Z,93885.83
2022-11-18T05:23:07.717Z,93886.46
2022-11-18T05:25:34.119Z,93886.46
2022-11-18T05:28:00.476Z,93904.73
2022-11-18T05:30:26.949Z,93892.30
2022-11-18T05:32:53.291Z,93889.05
2022-11-18T05:35:19.691Z,93893.27
2022-11-18T05:37:46.045Z,93897.96
2022-11-18T05:40:12.449Z,93901.50
2022-11-18T05:42:38.807Z,93895.86
2022-11-18T05:45:05.231Z,93891.35
2022-11-18T05:47:31.593Z,93895.39
2022-11-18T05:49:57.982Z,93885.69
2022-11-18T05:52:24.371Z,93893.94
2022-11-18T05:54:50.764Z,93889.39
2022-11-18T05:57:17.109Z,93889.59
2022-11-18T05:59:43.512Z,93890.08
2022-11-18T06:02:09.875Z,93891.68
2022-11-18T06:04:36.274Z,93875.84
2022-11-18T06:07:02.634Z,93878.59
2022-11-18T06:09:29.019Z,93895.56
2022-11-18T06:11:55.374Z,93885.89
2022-11-18T06:14:21.777Z,93883.75
2022-11-18T06:16:48.133Z,93888.94
2022-11-18T06:19:14.535Z,93877.45
2022-11-18T06:21:40.874Z,93881.84
2022-11-18T06:24:07.288Z,93883.47
2022-11-18T06:26:33.674Z,93862.89
2022-11-18T06:29:00.144Z,93864.03
2022-11-18T06:31:26.502Z,93872.09
2022-11-18T06:33:52.937Z,93875.83
2022-11-18T06:36:19.290Z,93863.66
2022-11-18T06:38:45.682Z,93866.58
2022-11-18T06:41:12.039Z,93873.53
2022-11-18T06:43:38.492Z,93870.76
2022-11-18T06:46:08.912Z,93866.39
2022-11-18T06:48:31.253Z,93857.33
2022-11-18T06:50:57.604Z,93857.95
2022-11-18T06:53:23.993Z,93867.49
2022-11-18T06:55:50.345Z,93877.36
2022-11-18T06:58:16.740Z,93876.06
2022-11-18T07:00:43.170Z,93876.06
2022-11-18T07:03:09.549Z,93886.42
2022-11-18T07:05:35.899Z,93877.66
2022-11-18T07:08:02.326Z,93877.66
2022-11-18T07:10:28.765Z,93876.06
2022-11-18T07:12:55.086Z,93883.51
2022-11-18T07:15:21.428Z,93881.44
2022-11-18T07:17:47.824Z,93880.95
2022-11-18T07:20:14.165Z,93878.38
2022-11-18T07:22:40.604Z,93878.22
2022-11-18T07:25:06.969Z,93878.23
2022-11-18T07:27:34.318Z,93873.05
2022-11-18T07:29:59.731Z,93848.94
2022-11-18T07:32:26.145Z,93831.30
2022-11-18T07:34:52.495Z,93841.02
2022-11-18T07:37:18.897Z,93856.38
2022-11-18T07:39:45.249Z,93856.38
2022-11-18T07:42:11.649Z,93850.75
2022-11-18T07:44:37.997Z,93826.17
2022-11-18T07:47:04.393Z,93823.25
2022-11-18T07:49:30.737Z,93841.51
2022-11-18T07:51:57.145Z,93841.51
2022-11-18T07:54:23.494Z,93850.56
2022-11-18T07:56:49.934Z,93830.48
2022-11-18T07:59:16.659Z,93834.08
2022-11-18T08:01:42.771Z,93840.55
2022-11-18T08:04:09.084Z,93845.39
2022-11-18T08:06:35.502Z,93853.30
2022-11-18T08:09:01.864Z,93849.91
2022-11-18T08:11:28.306Z,93838.11
2022-11-18T08:13:54.667Z,93841.98
2022-11-18T08:16:21.133Z,93879.05
2022-11-18T08:18:47.530Z,93889.73
2022-11-18T08:21:13.978Z,93884.70
2022-11-18T08:23:42.316Z,93872.90
2022-11-18T08:26:06.744Z,93874.34
2022-11-18T08:28:34.611Z,93869.46
2022-11-18T08:30:59.733Z,93867.69
2022-11-18T08:33:27.035Z,93859.77
2022-11-18T08:35:52.476Z,93857.37
2022-11-18T08:38:18.837Z,93840.70
2022-11-18T08:40:45.610Z,93838.44
2022-11-18T08:43:11.962Z,93836.81
2022-11-18T08:45:38.369Z,93836.81
2022-11-18T08:48:05.954Z,93829.04
2022-11-18T08:50:31.123Z,93820.65
2022-11-18T08:52:57.501Z,93822.57
2022-11-18T08:55:25.113Z,93819.69
2022-11-18T08:57:50.298Z,93789.89
2022-11-18T09:00:16.692Z,93796.21
2022-11-18T09:02:43.050Z,93748.23
2022-11-18T09:05:09.451Z,93748.23
2022-11-18T09:07:35.869Z,93759.82
2022-11-18T09:10:02.211Z,93754.94
2022-11-18T09:12:28.588Z,93759.49
2022-11-18T09:17:21.346Z,93758.83
2022-11-18T09:19:48.458Z,93748.47
2022-11-18T09:22:14.118Z,93743.78
2022-11-18T09:24:40.530Z,93758.34
2022-11-18T09:27:10.813Z,93743.61
2022-11-18T09:29:33.290Z,93729.73
2022-11-18T09:31:59.645Z,93727.28
2022-11-18T09:34:26.066Z,93727.28
2022-11-18T09:36:52.429Z,93747.97
2022-11-18T09:39:21.059Z,93741.65
2022-11-18T09:41:47.315Z,93760.72
2022-11-18T09:44:13.710Z,93726.10
2022-11-18T09:46:40.054Z,93723.98
2022-11-18T09:49:06.457Z,93704.25
2022-11-18T09:51:32.851Z,93704.25
2022-11-18T09:53:59.240Z,93701.45
2022-11-18T09:56:25.626Z,93694.31
2022-11-18T09:58:52.004Z,93703.03
2022-11-18T10:01:18.404Z,93695.52
2022-11-18T10:03:44.747Z,93689.67
2022-11-18T10:06:11.163Z,93689.67
2022-11-18T10:08:37.604Z,93673.00
2022-11-18T10:11:03.978Z,93674.27
2022-11-18T10:13:30.377Z,93690.78
2022-11-18T10:15:56.740Z,93671.98
2022-11-18T10:18:59.354Z,93671.98
2022-11-18T10:20:49.499Z,93701.61
2022-11-18T10:23:15.922Z,93701.61
2022-11-18T10:25:42.302Z,93704.91
2022-11-18T10:28:08.689Z,93650.39
2022-11-18T10:30:35.079Z,93650.39
2022-11-18T10:33:01.484Z,93663.52
2022-11-18T10:35:29.271Z,93649.84
2022-11-18T10:38:07.313Z,93649.84
2022-11-18T10:40:20.596Z,93630.54
2022-11-18T10:42:47.009Z,93630.54
2022-11-18T10:45:13.370Z,93634.52
2022-11-18T10:47:39.775Z,93634.52
2022-11-18T10:50:06.171Z,93605.69
2022-11-18T10:52:32.565Z,93621.98
2022-11-18T10:54:58.916Z,93612.33
2022-11-18T10:57:25.335Z,93612.72
2022-11-18T10:59:51.661Z,93613.77
2022-11-18T11:02:18.149Z,93583.98
2022-11-18T11:04:44.417Z,93594.41
2022-11-18T11:07:10.833Z,93584.02
2022-11-18T11:09:37.183Z,93584.02
2022-11-18T11:12:03.573Z,93593.70
2022-11-18T11:14:29.937Z,93590.10
2022-11-18T11:16:56.355Z,93594.88
2022-11-18T11:19:22.775Z,93595.72
2022-11-18T11:21:49.104Z,93584.86
2022-11-18T11:24:15.734Z,93603.02
2022-11-18T11:29:08.301Z,93577.92
2022-11-18T11:31:34.648Z,93575.20
2022-11-18T11:34:01.131Z,93593.20
2022-11-18T11:36:27.432Z,93589.04
2022-11-18T11:38:53.849Z,93579.47
2022-11-18T11:41:21.214Z,93576.84
2022-11-18T11:43:47.597Z,93574.56
2022-11-18T11:46:13.942Z,93561.96
2022-11-18T11:48:40.356Z,93539.83
2022-11-18T11:51:06.716Z,93573.71
2022-11-18T11:53:33.215Z,93566.46
2022-11-18T11:55:59.560Z,93565.98
2022-11-18T11:58:25.948Z,93572.73
2022-11-18T12:00:52.313Z,93573.17
2022-11-18T12:03:18.804Z,93574.27
2022-11-18T12:05:45.058Z,93558.31
2022-11-18T12:08:11.453Z,93563.10
2022-11-18T12:10:37.798Z,93560.05
2022-11-18T12:13:04.180Z,93565.53
2022-11-18T12:15:30.520Z,93567.31
2022-11-18T12:17:56.996Z,93566.55
2022-11-18T12:20:23.348Z,93559.73
2022-11-18T12:22:49.774Z,93558.36
2022-11-18T12:25:16.101Z,93559.48
2022-11-18T12:27:42.480Z,93551.34
2022-11-18T12:30:08.820Z,93542.88
2022-11-18T12:32:35.210Z,93542.88
2022-11-18T12:35:01.572Z,93539.31
2022-11-18T12:37:27.996Z,93536.11
2022-11-18T12:39:54.337Z,93530.60
2022-11-18T12:42:20.729Z,93549.44
2022-11-18T12:44:47.093Z,93543.72
2022-11-18T12:47:13.477Z,93529.46
2022-11-18T12:49:39.829Z,93524.12
2022-11-18T12:52:06.227Z,93521.75
2022-11-18T12:54:32.575Z,93517.15
2022-11-18T12:56:58.953Z,93530.52
2022-11-18T12:59:25.294Z,93523.66
2022-11-18T13:01:51.679Z,93504.82
2022-11-18T13:04:18.021Z,93490.92
2022-11-18T13:06:45.853Z,93489.38
2022-11-18T13:09:10.768Z,93516.31
2022-11-18T13:11:37.243Z,93501.69
2022-11-18T13:14:03.522Z,93499.11
2022-11-18T13:16:35.555Z,93490.45
2022-11-18T13:18:56.259Z,93483.34
2022-11-18T13:21:22.708Z,93473.98
2022-11-18T13:23:49.045Z,93485.88
2022-11-18T13:26:15.432Z,93480.44
2022-11-18T13:28:41.789Z,93473.19
2022-11-18T13:31:08.220Z,93473.19
2022-11-18T13:33:34.561Z,93481.56
2022-11-18T13:36:00.964Z,93479.31
2022-11-18T13:38:28.722Z,93476.59
2022-11-18T13:40:53.705Z,93452.89
2022-11-18T13:43:20.051Z,93451.59
2022-11-18T13:45:46.445Z,93462.70
2022-11-18T13:48:12.799Z,93462.70
2022-11-18T13:50:39.202Z,93463.69
2022-11-18T13:53:05.549Z,93474.67
2022-11-18T13:55:31.931Z,93474.67
2022-11-18T13:57:58.275Z,93488.03
2022-11-18T14:00:24.735Z,93486.29
2022-11-18T14:02:51.033Z,93471.80
2022-11-18T14:05:21.261Z,93471.80
2022-11-18T14:07:43.780Z,93455.50
2022-11-18T14:10:10.211Z,93441.31
2022-11-18T14:12:36.552Z,93463.88
2022-11-18T14:15:02.898Z,93454.84
2022-11-18T14:17:29.235Z,93454.84
2022-11-18T14:19:55.638Z,93430.17
2022-11-18T14:22:21.980Z,93465.02
2022-11-18T14:24:48.399Z,93441.64
2022-11-18T14:27:14.743Z,93434.05
2022-11-18T14:29:43.545Z,93429.00
2022-11-18T14:32:09.899Z,93445.77
2022-11-18T14:34:36.287Z,93445.14
2022-11-18T14:37:02.650Z,93429.70
2022-11-18T14:39:29.062Z,93429.70
2022-11-18T14:41:55.405Z,93454.18
2022-11-18T14:44:21.773Z,93440.31
2022-11-18T14:46:48.106Z,93451.33
2022-11-18T14:49:14.501Z,93445.15
2022-11-18T14:51:40.851Z,93434.34
2022-11-18T14:54:07.228Z,93464.50
2022-11-18T14:56:33.573Z,93446.98
2022-11-18T14:58:59.971Z,93475.16
2022-11-18T15:01:30.412Z,93469.70
2022-11-18T15:03:52.705Z,93469.70
2022-11-18T15:06:19.049Z,93446.83
2022-11-18T15:08:45.426Z,93446.83
2022-11-18T15:11:11.773Z,93501.16
2022-11-18T15:13:39.526Z,93498.58
2022-11-18T15:16:04.497Z,93498.58
2022-11-18T15:18:30.883Z,93478.75
2022-11-18T15:20:57.222Z,93478.75
2022-11-18T15:23:29.552Z,93454.08
2022-11-18T15:25:49.953Z,93468.91
2022-11-18T15:28:16.338Z,93462.45
2022-11-18T15:30:42.705Z,93455.86
2022-11-18T15:33:09.103Z,93414.91
2022-11-18T15:35:35.468Z,93414.91
2022-11-18T15:38:01.851Z,93426.21
2022-11-18T15:40:28.196Z,93426.21
2022-11-18T15:42:54.615Z,93438.61
2022-11-18T15:45:21.000Z,93425.70
2022-11-18T15:47:47.377Z,93405.58
2022-11-18T15:50:13.726Z,93409.11
2022-11-18T15:52:40.107Z,93409.11
2022-11-18T15:55:08.193Z,93404.59
2022-11-18T15:57:32.855Z,93402.48
2022-11-18T15:59:59.193Z,93413.28
2022-11-18T16:02:25.572Z,93413.28
2022-11-18T16:04:51.906Z,93400.72
2022-11-18T16:07:18.421Z,93383.63
2022-11-18T16:09:44.664Z,93389.77
2022-11-18T16:12:11.076Z,93384.61
2022-11-18T16:14:37.461Z,93384.61
2022-11-18T16:17:03.856Z,93380.89
2022-11-18T16:19:30.224Z,93373.78
2022-11-18T16:21:56.601Z,93373.78
2022-11-18T16:24:22.988Z,93400.23
2022-11-18T16:26:49.368Z,93400.23
2022-11-18T16:29:15.793Z,93413.61
2022-11-18T16:31:42.113Z,93458.56
2022-11-18T16:34:08.454Z,93458.56
2022-11-18T16:36:34.844Z,93464.08
2022-11-18T16:39:01.184Z,93461.62
2022-11-18T16:41:27.581Z,93463.13
2022-11-18T16:43:53.919Z,93448.91
2022-11-18T16:46:20.335Z,93448.91
2022-11-18T16:48:48.608Z,93472.59
2022-11-18T16:51:13.057Z,93475.02
2022-11-18T16:53:39.400Z,93455.82
2022-11-18T16:56:05.822Z,93432.13
2022-11-18T16:58:32.167Z,93442.44
2022-11-18T17:01:18.759Z,93480.98
2022-11-18T17:03:24.883Z,93458.09
2022-11-18T17:05:51.259Z,93458.09
2022-11-18T17:08:17.601Z,93421.03
2022-11-18T17:10:43.987Z,93449.53
2022-11-18T17:13:10.321Z,93465.33
2022-11-18T17:15:36.731Z,93463.88
2022-11-18T17:18:03.064Z,93463.88
2022-11-18T17:20:29.830Z,93456.15
2022-11-18T17:22:56.103Z,93447.28
2022-11-18T17:25:22.520Z,93446.98
2022-11-18T17:27:48.860Z,93449.38
2022-11-18T17:30:15.249Z,93457.10
2022-11-18T17:32:41.608Z,93449.38
2022-11-18T17:35:08.035Z,93442.92
2022-11-18T17:37:34.390Z,93443.89
2022-11-18T17:40:00.785Z,93431.50
2022-11-18T17:42:27.159Z,93415.37
2022-11-18T17:44:53.538Z,93411.20
2022-11-18T17:47:19.876Z,93402.66
2022-11-18T17:49:46.258Z,93420.86
2022-11-18T17:52:12.598Z,93400.70
2022-11-18T17:54:38.990Z,93380.59
2022-11-18T17:57:05.362Z,93378.02
2022-11-18T17:59:31.753Z,93386.23
2022-11-18T18:01:59.802Z,93385.91
2022-11-18T18:04:24.486Z,93392.02
2022-11-18T18:06:50.831Z,93403.94
2022-11-18T18:09:17.227Z,93403.94
2022-11-18T18:11:43.573Z,93387.66
2022-11-18T18:14:11.305Z,93398.31
2022-11-18T18:16:36.366Z,93378.34
2022-11-18T18:19:02.770Z,93372.53
2022-11-18T18:21:29.125Z,93370.94
2022-11-18T18:23:55.487Z,93367.55
2022-11-18T18:26:25.265Z,93371.56
2022-11-18T18:28:48.262Z,93378.34
2022-11-18T18:31:14.637Z,93378.34
2022-11-18T18:33:42.440Z,93363.35
2022-11-18T18:36:07.354Z,93375.28
2022-11-18T18:38:33.783Z,93377.20
2022-11-18T18:41:00.091Z,93374.30
2022-11-18T18:43:26.484Z,93375.09
2022-11-18T18:45:52.829Z,93395.56
2022-11-18T18:48:19.228Z,93415.86
2022-11-18T18:50:45.577Z,93406.34
2022-11-18T18:53:11.985Z,93408.78
2022-11-18T18:55:44.548Z,93396.21
2022-11-18T18:58:04.718Z,93397.17
2022-11-18T19:00:31.065Z,93390.11
2022-11-18T19:02:57.467Z,93396.84
2022-11-18T19:05:45.945Z,93429.06
2022-11-18T19:07:50.256Z,93444.86
2022-11-18T19:10:16.560Z,93437.45
2022-11-18T19:12:43.034Z,93432.63
2022-11-18T19:15:09.353Z,93432.45
2022-11-18T19:17:35.820Z,93440.02
2022-11-18T19:20:02.083Z,93442.12
2022-11-18T19:22:28.478Z,93433.25
2022-11-18T19:24:55.190Z,93440.17
2022-11-18T19:27:21.252Z,93457.73
2022-11-18T19:29:47.616Z,93439.36
2022-11-18T19:32:13.994Z,93444.52
2022-11-18T19:34:40.349Z,93459.34
2022-11-18T19:37:06.731Z,93452.89
2022-11-18T19:39:33.072Z,93451.92
2022-11-18T19:41:59.449Z,93462.41
2022-11-18T19:44:25.808Z,93482.38
2022-11-18T19:46:52.181Z,93476.39
2022-11-18T19:49:18.863Z,93495.58
2022-11-18T19:51:44.920Z,93503.45
2022-11-18T19:54:11.254Z,93479.30
2022-11-18T19:56:37.685Z,93494.43
2022-11-18T19:59:04.092Z,93487.98
2022-11-18T20:01:30.510Z,93502.17
2022-11-18T20:03:56.851Z,93495.55
2022-11-18T20:06:23.232Z,93518.41
2022-11-18T20:08:49.575Z,93537.12
2022-11-18T20:11:15.976Z,93541.45
2022-11-18T20:13:42.313Z,93550.14
2022-11-18T20:16:08.697Z,93547.27
2022-11-18T20:18:35.040Z,93559.33
2022-11-18T20:21:01.428Z,93568.34
2022-11-18T20:23:27.771Z,93572.02
2022-11-18T20:25:54.166Z,93582.66
2022-11-18T20:28:20.506Z,93593.30
2022-11-18T20:30:46.933Z,93600.69
2022-11-18T20:33:13.268Z,93618.73
2022-11-18T20:35:39.656Z,93609.88
2022-11-18T20:38:06.005Z,93613.75
2022-11-18T20:40:32.381Z,93615.65
2022-11-18T20:42:58.725Z,93618.90
2022-11-18T20:45:25.154Z,93624.05
2022-11-18T20:47:51.460Z,93626.77
2022-11-18T20:50:17.864Z,93628.53
2022-11-18T20:52:44.203Z,93623.86
2022-11-18T20:55:10.588Z,93610.50
2022-11-18T20:57:36.959Z,93612.77
2022-11-18T21:00:03.367Z,93612.91
2022-11-18T21:02:29.714Z,93614.06
2022-11-18T21:04:56.095Z,93618.88
2022-11-18T21:07:22.481Z,93615.96
2022-11-18T21:09:48.840Z,93620.30
2022-11-18T21:12:15.177Z,93615.66
2022-11-18T21:14:41.559Z,93604.84
2022-11-18T21:17:07.905Z,93617.72
2022-11-18T21:19:34.289Z,93626.27
2022-11-18T21:22:00.636Z,93630.13
2022-11-18T21:24:27.034Z,93623.05
2022-11-18T21:26:53.385Z,93638.33
2022-11-18T21:29:20.045Z,93641.89
2022-11-18T21:31:46.117Z,93647.05
2022-11-18T21:34:12.533Z,93641.55
2022-11-18T21:36:44.175Z,93629.48
2022-11-18T21:39:05.264Z,93653.15
2022-11-18T21:41:31.654Z,93650.67
2022-11-18T21:44:05.518Z,93651.05
2022-11-18T21:46:24.432Z,93667.80
2022-11-18T21:48:52.547Z,93654.09
2022-11-18T21:51:17.196Z,93668.27
2022-11-18T21:53:43.540Z,93680.81
2022-11-18T21:56:09.933Z,93690.50
2022-11-18T21:58:36.285Z,93688.88
2022-11-18T22:01:02.684Z,93685.02
2022-11-18T22:03:29.012Z,93679.52
2022-11-18T22:05:55.393Z,93689.96
2022-11-18T22:08:21.733Z,93696.88
2022-11-18T22:10:48.117Z,93702.03
2022-11-18T22:13:14.459Z,93717.83
2022-11-18T22:15:40.854Z,93703.80
2022-11-18T22:18:07.201Z,93679.48
2022-11-18T22:20:33.586Z,93691.55
2022-11-18T22:22:59.931Z,93709.92
2022-11-18T22:25:26.328Z,93707.35
2022-11-18T22:27:52.675Z,93718.13
2022-11-18T22:30:19.060Z,93705.72
2022-11-18T22:32:45.405Z,93721.99
2022-11-18T22:35:11.799Z,93722.13
2022-11-18T22:37:38.147Z,93721.18
2022-11-18T22:40:04.535Z,93719.08
2022-11-18T22:42:30.875Z,93727.75
2022-11-18T22:44:57.262Z,93725.69
2022-11-18T22:47:23.617Z,93734.20
2022-11-18T22:49:55.050Z,93730.02
2022-11-18T22:52:16.347Z,93730.02
2022-11-18T22:54:42.729Z,93745.48
2022-11-18T22:57:09.198Z,93760.93
2022-11-18T22:59:35.527Z,93756.59
2022-11-18T23:02:01.890Z,93773.00
2022-11-18T23:04:28.292Z,93800.39
2022-11-18T23:06:54.727Z,93790.69
2022-11-18T23:09:21.355Z,93795.23
2022-11-18T23:11:47.369Z,93820.17
2022-11-18T23:14:13.765Z,93825.46
2022-11-18T23:16:42.067Z,93810.98
2022-11-18T23:19:06.501Z,93809.20
2022-11-18T23:21:32.850Z,93816.27
2022-11-18T23:23:59.263Z,93823.05
2022-11-18T23:26:25.610Z,93826.91
2022-11-18T23:28:51.998Z,93836.41
2022-11-18T23:31:18.349Z,93853.96
2022-11-18T23:33:44.734Z,93858.30
2022-11-18T23:36:11.073Z,93850.23
2022-11-18T23:38:37.462Z,93862.64
2022-11-18T23:41:03.839Z,93869.08
2022-11-18T23:43:30.224Z,93881.48
2022-11-18T23:45:56.566Z,93875.81
2022-11-18T23:48:22.952Z,93883.06
2022-11-18T23:50:49.303Z,93878.25
2022-11-18T23:53:15.726Z,93872.28
2022-11-18T23:55:42.079Z,93880.95
2022-11-18T23:58:08.462Z,93869.03
